Aérodrome :
LOGIN :

S'inscrire | Disclaimer

   EN    FR    IT 

 










Légende :    VFR   VFR Marginal   IFR   IFR Intensif   IFR Très Intensif
Visi : 
Plafond : 
>= 8 km
>= 3000ft
5 à 8 km
1000 à 3000 ft
1500m à 5 km
500 à 1000 ft
800 à 1500m
200 à 500 ft
< 800m
< 200 ft
Symboles :   Orages  Brouillard  Fortes neiges  Fortes précipitations  Vent > 20 kt
SIGMETs :   Divers  Orages  Givrage  Turbulence  Onde Orograph.  Cendres Volcan.






- Altitude de l'aérodrome : 9 ft
- Code IATA : MIR


DTMB - Habib Bourguliba Int. Monastir

DERNIER METAR :
  • 282230Z 00000KT 8000 FEW020 23/17 Q1015

METARs EXPIRÉS :
  • 282200Z 00000KT 8000 FEW020 23/17 Q1015
  • 282130Z 17003KT 8000 SCT020 24/17 Q1015
  • 282100Z 15007KT 8000 SCT020 24/17 Q1015
  • 282030Z 13012KT 8000 SCT020 25/19 Q1014
  • 282000Z 09012KT 8000 SCT020 25/18 Q1014
  • 281930Z 08006KT 8000 SCT020 25/18 Q1014
  • 281900Z 10007KT 8000 SCT020 27/16 Q1013
  • 281830Z 14008KT 8000 SCT020 FEW023CB SCT026 28/17 Q1013
  • 281800Z 14006KT 8000 SCT020 FEW023CB SCT026 28/17 Q1013

TAF TAF DTMB
Valide du 28 à 18h jusqu'au 29 à 18h UTC


281700Z 2818/2918 14011KT 8000 SCT020 SCT026
PROB40
TEMPO 2818/2821 -TSRA SCT020 FEW023CB SCT026
BECMG 2819/2821 34010KT
BECMG 2909/2911 09012KT 9999 FEW026
BECMG 2915/2917 03014KT



MET'MAP, la Météo Aéronautique d'un coup d'oeil ! - Copyright ORBIFLY Décembre 2007 - Disclaimer

ORBIFLY MET'MAP TEAM :

Programmation & Développement : Alexandra Zaïnal
Sur une idée originale de : Baudouin d'Aumeries
Soutien technique & logistique : Manuel Goepfert
Assistance : Marc-Olivier Méhu




SOURCES & CREDITS :

   NOAA